createdAt,value
2023-01-08T00:01:09.385Z,30.33
2023-01-08T00:03:39.201Z,30.53
2023-01-08T00:06:09.787Z,28.07
2023-01-08T00:08:37.933Z,27.70
2023-01-08T00:11:06.201Z,27.53
2023-01-08T00:13:35.880Z,27.13
2023-01-08T00:16:05.372Z,27.70
2023-01-08T00:18:33.880Z,28.77
2023-01-08T00:21:02.357Z,29.93
2023-01-08T00:23:30.618Z,32.83
2023-01-08T00:25:58.691Z,34.27
2023-01-08T00:28:26.792Z,34.57
2023-01-08T00:30:56.387Z,35.93
2023-01-08T00:33:24.452Z,37.73
2023-01-08T00:35:52.567Z,39.63
2023-01-08T00:38:20.611Z,42.10
2023-01-08T00:40:49.749Z,44.70
2023-01-08T00:43:17.755Z,46.87
2023-01-08T00:45:45.900Z,47.70
2023-01-08T00:48:15.382Z,47.20
2023-01-08T00:50:43.400Z,46.30
2023-01-08T00:53:11.513Z,46.70
2023-01-08T00:55:39.531Z,39.63
2023-01-08T00:58:07.652Z,35.27
2023-01-08T01:00:35.693Z,34.57
2023-01-08T01:03:03.817Z,33.77
2023-01-08T01:05:33.201Z,35.30
2023-01-08T01:08:01.243Z,35.83
2023-01-08T01:10:29.356Z,36.47
2023-01-08T01:12:57.379Z,36.93
2023-01-08T01:15:26.663Z,37.73
2023-01-08T01:17:54.729Z,37.87
2023-01-08T01:20:23.776Z,39.53
2023-01-08T01:22:53.157Z,38.77
2023-01-08T01:25:21.242Z,39.50
2023-01-08T01:27:49.409Z,38.13
2023-01-08T01:30:17.529Z,36.23
2023-01-08T01:32:45.536Z,35.33
2023-01-08T01:35:13.619Z,33.70
2023-01-08T01:37:42.065Z,31.57
2023-01-08T01:40:12.182Z,32.20
2023-01-08T01:42:41.263Z,32.27
2023-01-08T01:45:22.489Z,32.50
2023-01-08T01:47:56.027Z,30.40
2023-01-08T01:50:28.825Z,29.57
2023-01-08T01:53:02.085Z,31.37
2023-01-08T01:55:32.610Z,32.37
2023-01-08T01:58:07.064Z,33.43
2023-01-08T02:00:35.629Z,34.77
2023-01-08T02:03:05.208Z,36.43
2023-01-08T02:05:42.222Z,40.30
2023-01-08T02:08:13.769Z,42.03
2023-01-08T02:10:48.785Z,42.43
2023-01-08T02:13:23.977Z,44.17
2023-01-08T02:15:58.153Z,46.37
2023-01-08T02:18:33.530Z,47.30
2023-01-08T02:21:09.539Z,49.60
2023-01-08T02:23:47.316Z,50.63
2023-01-08T02:26:21.190Z,50.20
2023-01-08T02:28:54.600Z,52.07
2023-01-08T02:31:26.221Z,54.33
2023-01-08T02:33:54.491Z,55.83
2023-01-08T02:36:28.728Z,55.47
2023-01-08T02:39:17.952Z,56.07
2023-01-08T02:42:11.576Z,57.77
2023-01-08T02:44:59.610Z,59.17
2023-01-08T02:47:32.981Z,60.60
2023-01-08T02:50:08.705Z,64.30
2023-01-08T02:52:41.986Z,63.07
2023-01-08T02:55:12.310Z,66.10
2023-01-08T02:57:42.068Z,64.37
2023-01-08T03:00:11.682Z,64.60
2023-01-08T03:02:42.441Z,64.43
2023-01-08T03:05:21.859Z,61.10
2023-01-08T03:07:50.584Z,62.20
2023-01-08T03:10:21.174Z,61.40
2023-01-08T03:12:55.647Z,63.90
2023-01-08T03:15:27.996Z,63.77
2023-01-08T03:18:00.057Z,63.83
2023-01-08T03:20:28.589Z,62.07
2023-01-08T03:22:59.275Z,64.30
2023-01-08T03:25:31.091Z,63.53
2023-01-08T03:28:04.809Z,65.30
2023-01-08T03:30:33.300Z,63.70
2023-01-08T03:33:02.677Z,64.40
2023-01-08T03:35:32.772Z,59.53
2023-01-08T03:38:07.267Z,60.33
2023-01-08T03:40:40.357Z,59.80
2023-01-08T03:43:09.806Z,60.83
2023-01-08T03:45:39.691Z,61.17
2023-01-08T03:48:09.077Z,61.80
2023-01-08T03:50:37.346Z,59.27
2023-01-08T03:53:05.434Z,56.60
2023-01-08T03:55:33.416Z,56.00
2023-01-08T03:58:01.470Z,53.70
2023-01-08T04:00:30.859Z,53.63
2023-01-08T04:02:59.094Z,52.30
2023-01-08T04:05:27.160Z,51.00
2023-01-08T04:07:57.541Z,51.30
2023-01-08T04:10:25.835Z,51.20
2023-01-08T04:12:54.217Z,51.10
2023-01-08T04:15:22.544Z,49.97
2023-01-08T04:17:51.934Z,48.97
2023-01-08T04:20:20.295Z,49.87
2023-01-08T04:22:48.394Z,50.20
2023-01-08T04:25:16.517Z,50.43
2023-01-08T04:27:44.516Z,52.40
2023-01-08T04:30:13.203Z,52.80
2023-01-08T04:32:41.266Z,53.20
2023-01-08T04:35:11.154Z,54.77
2023-01-08T04:37:39.180Z,54.10
2023-01-08T04:40:08.372Z,56.87
2023-01-08T04:42:36.431Z,56.13
2023-01-08T04:45:04.738Z,55.43
2023-01-08T04:47:32.804Z,56.20
2023-01-08T04:50:00.877Z,55.67
2023-01-08T04:52:30.799Z,55.30
2023-01-08T04:54:58.854Z,55.83
2023-01-08T04:57:26.930Z,56.27
2023-01-08T04:59:55.056Z,58.13
2023-01-08T05:02:23.261Z,58.00
2023-01-08T05:04:51.413Z,57.60
2023-01-08T05:07:19.384Z,58.40
2023-01-08T05:09:49.855Z,59.00
2023-01-08T05:12:17.874Z,62.13
2023-01-08T05:14:45.921Z,60.97
2023-01-08T05:17:13.966Z,59.90
2023-01-08T05:19:42.284Z,60.00
2023-01-08T05:22:10.279Z,60.50
2023-01-08T05:24:38.262Z,61.30
2023-01-08T05:27:07.500Z,60.67
2023-01-08T05:29:35.554Z,59.17
2023-01-08T05:32:03.596Z,61.30
2023-01-08T05:34:31.553Z,61.13
2023-01-08T05:36:59.620Z,60.43
2023-01-08T05:39:27.677Z,61.80
2023-01-08T05:41:55.669Z,62.73
2023-01-08T05:44:25.028Z,64.87
2023-01-08T05:46:54.663Z,64.07
2023-01-08T05:49:23.903Z,64.90
2023-01-08T05:51:52.201Z,65.27
2023-01-08T05:54:20.224Z,65.30
2023-01-08T05:56:48.208Z,67.70
2023-01-08T05:59:16.373Z,66.77
2023-01-08T06:01:45.840Z,64.57
2023-01-08T06:04:14.036Z,65.20
2023-01-08T06:06:42.121Z,66.67
2023-01-08T06:09:10.177Z,67.13
2023-01-08T06:11:38.178Z,67.77
2023-01-08T06:14:06.276Z,65.93
2023-01-08T06:16:34.348Z,66.60
2023-01-08T06:19:03.773Z,67.23
2023-01-08T06:21:31.923Z,67.37
2023-01-08T06:23:59.999Z,66.50
2023-01-08T06:26:28.036Z,63.70
2023-01-08T06:28:56.030Z,65.07
2023-01-08T06:31:24.111Z,67.43
2023-01-08T06:33:52.157Z,66.30
2023-01-08T06:36:21.684Z,66.27
2023-01-08T06:38:49.715Z,67.37
2023-01-08T06:41:19.064Z,67.67
2023-01-08T06:43:47.134Z,67.63
2023-01-08T06:46:15.227Z,67.40
2023-01-08T06:48:43.381Z,65.93
2023-01-08T06:51:11.512Z,67.47
2023-01-08T06:53:40.877Z,68.80
2023-01-08T06:56:10.879Z,66.83
2023-01-08T06:58:40.042Z,67.43
2023-01-08T07:01:08.364Z,66.67
2023-01-08T07:03:36.707Z,68.40
2023-01-08T07:06:05.166Z,67.13
2023-01-08T07:08:33.168Z,68.03
2023-01-08T07:11:05.006Z,68.60
2023-01-08T07:13:33.120Z,65.87
2023-01-08T07:16:07.315Z,67.60
2023-01-08T07:18:36.297Z,68.33
2023-01-08T07:21:04.704Z,66.10
2023-01-08T07:23:33.592Z,65.80
2023-01-08T07:26:01.950Z,66.13
2023-01-08T07:28:32.151Z,65.03
2023-01-08T07:31:04.650Z,65.50
2023-01-08T07:33:33.966Z,62.90
2023-01-08T07:36:02.405Z,64.33
2023-01-08T07:38:30.431Z,62.97
2023-01-08T07:40:59.101Z,63.77
2023-01-08T07:43:29.931Z,64.40
2023-01-08T07:45:59.381Z,61.60
2023-01-08T07:48:27.567Z,60.43
2023-01-08T07:50:55.687Z,62.70
2023-01-08T07:53:23.783Z,57.60
2023-01-08T07:55:51.820Z,62.00
2023-01-08T07:58:19.882Z,58.80
2023-01-08T08:00:47.928Z,60.53
2023-01-08T08:03:17.567Z,58.63
2023-01-08T08:05:45.779Z,58.57
2023-01-08T08:08:14.725Z,58.17
2023-01-08T08:10:43.765Z,57.50
2023-01-08T08:13:12.851Z,58.00
2023-01-08T08:15:41.710Z,55.90
2023-01-08T08:18:10.443Z,58.67
2023-01-08T08:20:40.361Z,57.20
2023-01-08T08:23:13.014Z,56.50
2023-01-08T08:25:41.823Z,56.73
2023-01-08T08:28:11.925Z,56.03
2023-01-08T08:30:42.657Z,57.80
2023-01-08T08:33:11.664Z,56.80
2023-01-08T08:35:41.216Z,56.37
2023-01-08T08:38:09.258Z,56.87
2023-01-08T08:40:37.327Z,57.20
2023-01-08T08:43:05.911Z,56.03
2023-01-08T08:45:34.347Z,56.80
2023-01-08T08:48:02.380Z,57.30
2023-01-08T08:50:30.425Z,55.77
2023-01-08T08:53:02.033Z,56.23
2023-01-08T08:55:30.490Z,55.30
2023-01-08T08:58:05.415Z,56.00
2023-01-08T09:00:34.030Z,57.37
2023-01-08T09:03:02.220Z,56.77
2023-01-08T09:05:30.439Z,53.97
2023-01-08T09:07:58.495Z,56.17
2023-01-08T09:10:28.078Z,57.00
2023-01-08T09:12:56.493Z,58.83
2023-01-08T09:15:24.568Z,60.40
2023-01-08T09:17:56.442Z,59.70
2023-01-08T09:20:25.726Z,57.40
2023-01-08T09:22:54.112Z,60.30
2023-01-08T09:25:22.184Z,61.57
2023-01-08T09:27:59.168Z,61.30
2023-01-08T09:30:27.303Z,60.27
2023-01-08T09:33:01.369Z,60.50
2023-01-08T09:35:30.816Z,61.37
2023-01-08T09:37:59.526Z,58.97
2023-01-08T09:40:40.639Z,59.13
2023-01-08T09:43:18.637Z,56.70
2023-01-08T09:45:52.573Z,57.00
2023-01-08T09:48:24.099Z,56.50
2023-01-08T09:50:52.463Z,55.53
2023-01-08T09:53:21.489Z,53.57
2023-01-08T09:56:08.620Z,56.00
2023-01-08T09:58:40.615Z,56.47
2023-01-08T10:01:12.775Z,54.30
2023-01-08T10:03:42.920Z,56.00
2023-01-08T10:06:12.513Z,54.90
2023-01-08T10:08:41.013Z,54.20
2023-01-08T10:11:12.065Z,53.47
2023-01-08T10:13:44.157Z,53.67
2023-01-08T10:16:21.370Z,50.53
2023-01-08T10:18:49.720Z,51.83
2023-01-08T10:21:18.941Z,49.00
2023-01-08T10:23:51.617Z,49.70
2023-01-08T10:26:30.623Z,49.73
2023-01-08T10:29:13.249Z,47.60
2023-01-08T10:31:50.874Z,50.27
2023-01-08T10:34:32.598Z,48.20
2023-01-08T10:37:01.276Z,48.30
2023-01-08T10:39:33.320Z,44.37
2023-01-08T10:42:07.786Z,43.20
2023-01-08T10:44:37.945Z,42.70
2023-01-08T10:47:07.138Z,40.30
2023-01-08T10:49:39.227Z,39.97
2023-01-08T10:52:20.091Z,40.40
2023-01-08T10:54:48.381Z,39.13
2023-01-08T10:57:25.548Z,37.73
2023-01-08T10:59:56.068Z,36.50
2023-01-08T11:02:36.454Z,35.00
2023-01-08T11:05:10.349Z,31.80
2023-01-08T11:07:40.266Z,30.80
2023-01-08T11:10:21.083Z,28.53
2023-01-08T11:12:50.137Z,27.10
2023-01-08T11:15:35.186Z,26.10
2023-01-08T11:18:09.041Z,22.50
2023-01-08T11:20:37.345Z,21.60
2023-01-08T11:23:07.136Z,23.30
2023-01-08T11:25:36.760Z,20.60
2023-01-08T11:28:06.894Z,19.47
2023-01-08T11:30:39.684Z,19.77
2023-01-08T11:33:13.505Z,18.73
2023-01-08T11:35:46.042Z,18.97
2023-01-08T11:38:14.626Z,19.00
2023-01-08T11:40:47.324Z,18.20
2023-01-08T11:43:26.372Z,18.63
2023-01-08T11:46:09.057Z,18.37
2023-01-08T11:48:54.641Z,18.47
2023-01-08T11:51:44.664Z,17.07
2023-01-08T11:54:26.321Z,17.60
2023-01-08T11:57:07.230Z,17.37
2023-01-08T11:59:47.925Z,17.37
2023-01-08T12:02:27.784Z,16.67
2023-01-08T12:05:20.081Z,16.90
2023-01-08T12:07:55.173Z,16.50
2023-01-08T12:10:27.298Z,17.00
2023-01-08T12:13:11.605Z,16.63
2023-01-08T12:15:52.011Z,16.80
2023-01-08T12:18:33.223Z,16.23
2023-01-08T12:21:11.609Z,16.40
2023-01-08T12:24:04.281Z,16.07
2023-01-08T12:26:40.461Z,16.50
2023-01-08T12:29:28.877Z,16.37
2023-01-08T12:32:21.712Z,16.70
2023-01-08T12:34:57.509Z,16.70
2023-01-08T12:37:30.537Z,16.57
2023-01-08T12:40:07.174Z,16.83
2023-01-08T12:42:46.772Z,16.67
2023-01-08T12:45:22.280Z,16.70
2023-01-08T12:47:54.627Z,17.00
2023-01-08T12:50:33.626Z,16.63
2023-01-08T12:53:07.990Z,16.50
2023-01-08T12:55:44.284Z,16.63
2023-01-08T12:58:24.130Z,16.50
2023-01-08T13:00:57.544Z,16.50
2023-01-08T13:03:29.485Z,16.40
2023-01-08T13:06:09.696Z,16.30
2023-01-08T13:08:39.927Z,16.37
2023-01-08T13:11:09.427Z,16.23
2023-01-08T13:13:41.689Z,16.70
2023-01-08T13:16:21.347Z,16.60
2023-01-08T13:18:58.202Z,16.30
2023-01-08T13:21:34.684Z,16.70
2023-01-08T13:24:05.768Z,16.53
2023-01-08T13:26:35.548Z,16.80
2023-01-08T13:29:28.244Z,16.13
2023-01-08T13:31:56.427Z,16.27
2023-01-08T13:34:38.767Z,16.57
2023-01-08T13:37:16.448Z,16.30
2023-01-08T13:39:51.318Z,16.43
2023-01-08T13:42:28.609Z,17.00
2023-01-08T13:45:02.098Z,16.47
2023-01-08T13:47:33.914Z,16.23
2023-01-08T13:50:05.244Z,16.27
2023-01-08T13:52:42.585Z,16.93
2023-01-08T13:55:18.725Z,16.10
2023-01-08T13:57:50.381Z,16.03
2023-01-08T14:00:24.319Z,15.83
2023-01-08T14:02:54.852Z,16.40
2023-01-08T14:05:27.597Z,16.17
2023-01-08T14:07:58.838Z,16.33
2023-01-08T14:10:27.977Z,16.20
2023-01-08T14:13:02.964Z,16.30
2023-01-08T14:15:31.155Z,16.37
2023-01-08T14:17:59.308Z,16.47
2023-01-08T14:20:35.699Z,16.47
2023-01-08T14:23:12.688Z,16.67
2023-01-08T14:25:42.251Z,16.40
2023-01-08T14:28:18.509Z,16.20
2023-01-08T14:30:51.179Z,16.60
2023-01-08T14:33:21.697Z,16.30
2023-01-08T14:35:51.249Z,17.00
2023-01-08T14:38:20.647Z,16.40
2023-01-08T14:40:52.414Z,16.27
2023-01-08T14:43:22.490Z,16.40
2023-01-08T14:45:53.220Z,16.33
2023-01-08T14:48:25.387Z,16.57
2023-01-08T14:51:04.195Z,16.07
2023-01-08T14:53:37.596Z,16.27
2023-01-08T14:56:07.695Z,17.23
2023-01-08T14:58:41.356Z,16.30
2023-01-08T15:01:15.886Z,18.17
2023-01-08T15:03:45.988Z,16.37
2023-01-08T15:06:25.320Z,16.50
2023-01-08T15:08:54.856Z,16.10
2023-01-08T15:11:24.865Z,16.23
2023-01-08T15:13:54.295Z,16.17
2023-01-08T15:16:28.833Z,16.80
2023-01-08T15:19:07.947Z,16.87
2023-01-08T15:21:37.044Z,16.53
2023-01-08T15:24:08.423Z,16.80
2023-01-08T15:26:36.446Z,16.80
2023-01-08T15:29:07.166Z,16.57
2023-01-08T15:31:47.383Z,16.80
2023-01-08T15:34:17.091Z,16.90
2023-01-08T15:36:46.645Z,17.10
2023-01-08T15:39:16.112Z,16.80
2023-01-08T15:42:01.596Z,16.63
2023-01-08T15:44:29.680Z,17.23
2023-01-08T15:46:58.245Z,17.60
2023-01-08T15:49:26.337Z,17.93
2023-01-08T15:51:54.691Z,18.50
2023-01-08T15:54:26.298Z,18.60
2023-01-08T15:56:54.449Z,18.63
2023-01-08T15:59:22.517Z,18.50
2023-01-08T16:01:50.676Z,19.50
2023-01-08T16:04:18.987Z,18.87
2023-01-08T16:06:47.177Z,18.77
2023-01-08T16:09:15.173Z,19.57
2023-01-08T16:11:44.624Z,20.07
2023-01-08T16:14:12.860Z,19.97
2023-01-08T16:16:41.027Z,20.20
2023-01-08T16:19:09.170Z,21.40
2023-01-08T16:21:37.204Z,20.33
2023-01-08T16:24:05.875Z,19.80
2023-01-08T16:26:34.018Z,20.63
2023-01-08T16:29:03.377Z,22.30
2023-01-08T16:31:31.442Z,22.13
2023-01-08T16:34:02.820Z,22.23
2023-01-08T16:36:30.928Z,24.20
2023-01-08T16:38:59.063Z,22.90
2023-01-08T16:41:27.107Z,22.80
2023-01-08T16:43:55.226Z,22.90
2023-01-08T16:46:24.966Z,24.30
2023-01-08T16:48:53.055Z,24.03
2023-01-08T16:51:21.694Z,24.57
2023-01-08T16:53:49.840Z,24.73
2023-01-08T16:56:17.959Z,25.47
2023-01-08T16:58:46.115Z,23.73
2023-01-08T17:01:15.219Z,23.50
2023-01-08T17:03:44.852Z,23.60
2023-01-08T17:06:14.610Z,22.10
2023-01-08T17:08:43.451Z,22.00
2023-01-08T17:11:14.528Z,23.10
2023-01-08T17:13:43.112Z,22.60
2023-01-08T17:16:12.629Z,22.17
2023-01-08T17:18:40.969Z,22.83
2023-01-08T17:21:12.238Z,22.20
2023-01-08T17:23:40.642Z,21.70
2023-01-08T17:26:11.038Z,21.80
2023-01-08T17:28:39.413Z,21.70
2023-01-08T17:31:09.890Z,21.50
2023-01-08T17:33:38.365Z,29.38
2023-01-08T17:36:13.560Z,23.10
2023-01-08T17:38:42.888Z,21.90
2023-01-08T17:41:31.525Z,21.90
2023-01-08T17:43:59.868Z,21.43
2023-01-08T17:46:28.288Z,22.77
2023-01-08T17:48:56.377Z,22.60
2023-01-08T17:51:25.875Z,22.57
2023-01-08T17:53:53.956Z,22.50
2023-01-08T17:56:22.154Z,22.60
2023-01-08T17:58:50.491Z,22.00
2023-01-08T18:01:19.249Z,23.17
2023-01-08T18:03:47.822Z,24.40
2023-01-08T18:06:16.561Z,25.63
2023-01-08T18:08:46.082Z,25.17
2023-01-08T18:11:14.246Z,25.10
2023-01-08T18:13:42.381Z,25.10
2023-01-08T18:16:13.723Z,26.00
2023-01-08T18:18:42.870Z,25.50
2023-01-08T18:21:11.207Z,26.50
2023-01-08T18:23:39.616Z,26.90
2023-01-08T18:26:12.351Z,25.33
2023-01-08T18:28:40.962Z,25.17
2023-01-08T18:31:10.865Z,25.50
2023-01-08T18:33:40.066Z,25.63
2023-01-08T18:36:10.768Z,25.47
2023-01-08T18:38:40.238Z,24.70
2023-01-08T18:41:11.089Z,25.10
2023-01-08T18:43:39.243Z,24.57
2023-01-08T18:46:09.298Z,23.97
2023-01-08T18:48:37.335Z,23.83
2023-01-08T18:51:07.504Z,24.20
2023-01-08T18:53:35.711Z,23.63
2023-01-08T18:56:03.820Z,23.90
2023-01-08T18:58:33.246Z,23.50
2023-01-08T19:01:04.286Z,24.67
2023-01-08T19:03:32.671Z,24.10
2023-01-08T19:06:00.728Z,24.37
2023-01-08T19:08:29.855Z,25.07
2023-01-08T19:10:57.906Z,24.17
2023-01-08T19:13:26.127Z,26.07
2023-01-08T19:15:55.577Z,26.17
2023-01-08T19:18:23.656Z,25.67
2023-01-08T19:20:51.706Z,26.83
2023-01-08T19:23:19.828Z,26.63
2023-01-08T19:25:47.970Z,26.23
2023-01-08T19:28:16.408Z,26.83
2023-01-08T19:30:44.643Z,27.00
2023-01-08T19:33:16.540Z,26.80
2023-01-08T19:35:44.626Z,26.03
2023-01-08T19:38:12.818Z,25.90
2023-01-08T19:40:40.863Z,26.90
2023-01-08T19:43:27.703Z,25.90
2023-01-08T19:45:55.913Z,25.97
2023-01-08T19:48:25.700Z,25.27
2023-01-08T19:50:54.023Z,25.20
2023-01-08T19:53:22.120Z,27.17
2023-01-08T19:55:50.440Z,25.10
2023-01-08T19:58:19.566Z,24.90
2023-01-08T20:00:47.715Z,26.20
2023-01-08T20:03:19.935Z,24.60
2023-01-08T20:05:49.385Z,24.40
2023-01-08T20:08:17.436Z,24.47
2023-01-08T20:10:45.500Z,23.07
2023-01-08T20:13:13.652Z,22.87
2023-01-08T20:15:42.797Z,24.10
2023-01-08T20:18:11.692Z,24.43
2023-01-08T20:20:40.800Z,24.27
2023-01-08T20:23:12.054Z,25.37
2023-01-08T20:25:42.053Z,24.43
2023-01-08T20:28:10.093Z,25.23
2023-01-08T20:30:38.263Z,29.30
2023-01-08T20:33:06.353Z,25.63
2023-01-08T20:35:37.361Z,27.37
2023-01-08T20:38:05.426Z,27.27
2023-01-08T20:40:37.833Z,26.10
2023-01-08T20:43:05.878Z,27.90
2023-01-08T20:45:33.967Z,26.30
2023-01-08T20:48:02.039Z,27.70
2023-01-08T20:50:30.123Z,29.00
2023-01-08T20:52:59.982Z,28.77
2023-01-08T20:55:28.320Z,29.30
2023-01-08T20:57:57.773Z,28.77
2023-01-08T21:00:26.305Z,29.70
2023-01-08T21:02:54.719Z,29.80
2023-01-08T21:05:24.319Z,30.40
2023-01-08T21:07:52.303Z,31.47
2023-01-08T21:10:20.461Z,32.17
2023-01-08T21:12:48.485Z,32.97
2023-01-08T21:15:18.082Z,34.70
2023-01-08T21:17:46.254Z,35.57
2023-01-08T21:20:14.644Z,36.90
2023-01-08T21:22:43.003Z,39.33
2023-01-08T21:25:12.874Z,39.27
2023-01-08T21:27:40.933Z,39.47
2023-01-08T21:30:10.455Z,40.70
2023-01-08T21:32:39.918Z,42.67
2023-01-08T21:35:08.661Z,43.37
2023-01-08T21:37:37.259Z,44.63
2023-01-08T21:40:07.516Z,44.80
2023-01-08T21:43:04.784Z,45.20
2023-01-08T21:45:32.991Z,45.50
2023-01-08T21:48:02.646Z,43.13
2023-01-08T21:50:30.723Z,45.13
2023-01-08T21:53:16.088Z,46.13
2023-01-08T21:55:44.539Z,46.57
2023-01-08T21:58:12.559Z,46.50
2023-01-08T22:00:40.681Z,44.17
2023-01-08T22:03:10.145Z,46.70
2023-01-08T22:05:38.205Z,45.83
2023-01-08T22:08:06.924Z,48.13
2023-01-08T22:10:35.177Z,49.70
2023-01-08T22:13:03.230Z,49.60
2023-01-08T22:15:31.326Z,49.60
2023-01-08T22:17:59.437Z,51.40
2023-01-08T22:20:28.851Z,54.20
2023-01-08T22:22:56.956Z,54.50
2023-01-08T22:25:25.035Z,58.20
2023-01-08T22:27:54.616Z,60.10
2023-01-08T22:30:22.860Z,61.20
2023-01-08T22:32:50.889Z,64.57
2023-01-08T22:35:19.059Z,66.03
2023-01-08T22:37:48.476Z,66.93
2023-01-08T22:40:17.074Z,69.90
2023-01-08T22:42:45.086Z,72.60
2023-01-08T22:45:13.181Z,74.80
2023-01-08T22:47:41.233Z,68.60
2023-01-08T22:50:10.540Z,71.77
2023-01-08T22:52:38.703Z,73.00
2023-01-08T22:55:09.035Z,71.80
2023-01-08T22:57:37.175Z,74.70
2023-01-08T23:00:09.810Z,66.67
2023-01-08T23:02:38.215Z,62.60
2023-01-08T23:05:07.007Z,61.20
2023-01-08T23:07:35.066Z,58.80
2023-01-08T23:10:03.123Z,57.43
2023-01-08T23:12:34.384Z,57.67
2023-01-08T23:15:03.333Z,57.90
2023-01-08T23:17:32.405Z,60.00
2023-01-08T23:20:01.946Z,59.90
2023-01-08T23:22:32.206Z,59.37
2023-01-08T23:25:00.598Z,59.60
2023-01-08T23:27:33.050Z,60.73
2023-01-08T23:30:01.328Z,59.80
2023-01-08T23:32:29.508Z,62.27
2023-01-08T23:34:57.618Z,60.63
2023-01-08T23:37:25.660Z,62.90
2023-01-08T23:39:53.840Z,64.90
2023-01-08T23:42:21.953Z,65.47
2023-01-08T23:44:51.497Z,66.00
2023-01-08T23:47:19.672Z,64.77
2023-01-08T23:49:47.792Z,61.50
2023-01-08T23:52:15.906Z,60.30
2023-01-08T23:54:44.107Z,59.90
2023-01-08T23:57:12.173Z,60.80
2023-01-08T23:59:40.389Z,60.60
